Terminal Aerodrome Forecast
Issued by NWS

Home | Current Version | Previous Version | Graphics & Text | Print | Product List | Glossary On
Versions: 1 2 3 4 5 6 7 8 9 10 11 12 13 14 15 16
720
FTUS43 KMPX 260303 AAA
TAFAXN
TAF AMD
KAXN 260303Z 2603/2624 24009KT P6SM SCT015 OVC035
      TEMPO 2603/2606 1 1/2SM -SN BR BKN015
     FM260600 22004KT P6SM BKN015 OVC035
     FM261500 29012G18KT P6SM BKN035=

USA.gov is the U.S. government's official web portal to all federal, state and local government web resources and services.